AZU4624 SBEG-SBBE
Flight info
| Callsign | AZU4624 |
|---|---|
| Flight time | 1h 45m |
| Altitude | 370 |
| Route | DCT XOLOK UZ81 DADUD DCT |
| Aircraft | A20N/M-SDE2E3FGHIJ1RWXY/LB1 |
Departure
| Time | 2026-05-07 18:37 |
|---|---|
| Airport | Eduardo Gomes International Airport (SBEG) |
Arrival
| Time | 2026-05-07 20:23 |
|---|---|
| Airport | Val de Cans/Júlio Cezar Ribeiro International Airport (SBBE) |
| Time | Latitude | Longitude | Altitude | Speed | Heading |
|---|---|---|---|---|---|
| 2026-05-07 18:27 | -3.03247 | -60.04451 | 268 ft | 0 kts | 345° |
| 2026-05-07 18:28 | -3.03251 | -60.04450 | 268 ft | 2 kts | 345° |
| 2026-05-07 18:28 | -3.03266 | -60.04447 | 268 ft | 2 kts | 345° |
| 2026-05-07 18:28 | -3.03280 | -60.04443 | 268 ft | 2 kts | 345° |
| 2026-05-07 18:29 | -3.03295 | -60.04439 | 268 ft | 2 kts | 345° |
| 2026-05-07 18:29 | -3.03309 | -60.04435 | 268 ft | 2 kts | 340° |
| 2026-05-07 18:29 | -3.03320 | -60.04431 | 268 ft | 2 kts | 321° |
| 2026-05-07 18:29 | -3.03328 | -60.04421 | 268 ft | 1 kts | 273° |
| 2026-05-07 18:30 | -3.03328 | -60.04417 | 268 ft | 0 kts | 256° |
| 2026-05-07 18:31 | -3.03334 | -60.04439 | 268 ft | 6 kts | 255° |
| 2026-05-07 18:31 | -3.03347 | -60.04502 | 268 ft | 12 kts | 260° |
| 2026-05-07 18:32 | -3.03356 | -60.04601 | 268 ft | 17 kts | 273° |
| 2026-05-07 18:32 | -3.03359 | -60.04735 | 268 ft | 22 kts | 261° |
| 2026-05-07 18:32 | -3.03416 | -60.04839 | 268 ft | 18 kts | 229° |
| 2026-05-07 18:32 | -3.03520 | -60.04915 | 268 ft | 19 kts | 225° |
| 2026-05-07 18:33 | -3.03589 | -60.05035 | 268 ft | 21 kts | 251° |
| 2026-05-07 18:33 | -3.03632 | -60.05184 | 268 ft | 23 kts | 256° |
| 2026-05-07 18:33 | -3.03667 | -60.05336 | 268 ft | 7 kts | 257° |
| 2026-05-07 18:33 | -3.03669 | -60.05347 | 268 ft | 3 kts | 257° |
| 2026-05-07 18:34 | -3.03677 | -60.05383 | 268 ft | 7 kts | 258° |
| 2026-05-07 18:34 | -3.03687 | -60.05445 | 268 ft | 11 kts | 263° |
| 2026-05-07 18:34 | -3.03691 | -60.05531 | 268 ft | 14 kts | 269° |
| 2026-05-07 18:34 | -3.03693 | -60.05642 | 268 ft | 17 kts | 269° |
| 2026-05-07 18:35 | -3.03690 | -60.05771 | 268 ft | 20 kts | 270° |
| 2026-05-07 18:35 | -3.03691 | -60.05915 | 268 ft | 22 kts | 270° |
| 2026-05-07 18:35 | -3.03689 | -60.06076 | 268 ft | 23 kts | 270° |
| 2026-05-07 18:35 | -3.03781 | -60.06175 | 268 ft | 21 kts | 185° |
| 2026-05-07 18:36 | -3.03837 | -60.06170 | 269 ft | 1 kts | 147° |
| 2026-05-07 18:36 | -3.03853 | -60.06159 | 269 ft | 4 kts | 140° |
| 2026-05-07 18:36 | -3.03861 | -60.06130 | 269 ft | 5 kts | 88° |
| 2026-05-07 18:36 | -3.03858 | -60.05962 | 269 ft | 59 kts | 90° |
| 2026-05-07 18:37 | -3.03865 | -60.05323 | 267 ft | 123 kts | 90° |
| 2026-05-07 18:37 | -3.03857 | -60.04323 | 499 ft | 151 kts | 90° |
| 2026-05-07 18:37 | -3.03831 | -60.03252 | 1165 ft | 157 kts | 88° |
| 2026-05-07 18:37 | -3.03810 | -60.02127 | 1788 ft | 159 kts | 90° |
| 2026-05-07 18:38 | -3.03833 | -60.01006 | 2333 ft | 169 kts | 92° |
| 2026-05-07 18:38 | -3.03885 | -59.99758 | 2723 ft | 189 kts | 92° |
| 2026-05-07 18:38 | -3.03952 | -59.98394 | 3149 ft | 210 kts | 92° |
| 2026-05-07 18:38 | -3.04018 | -59.96845 | 3666 ft | 232 kts | 92° |
| 2026-05-07 18:39 | -3.04082 | -59.95150 | 4265 ft | 253 kts | 91° |
| 2026-05-07 18:39 | -3.04144 | -59.93340 | 4986 ft | 267 kts | 91° |
| 2026-05-07 18:39 | -3.04205 | -59.91465 | 5943 ft | 270 kts | 91° |
| 2026-05-07 18:39 | -3.04265 | -59.89598 | 6885 ft | 273 kts | 92° |
| 2026-05-07 18:40 | -3.04327 | -59.87682 | 7770 ft | 277 kts | 92° |
| 2026-05-07 18:40 | -3.04390 | -59.85726 | 8648 ft | 281 kts | 92° |
| 2026-05-07 18:40 | -3.04453 | -59.83779 | 9555 ft | 284 kts | 92° |
| 2026-05-07 18:40 | -3.04519 | -59.81780 | 10345 ft | 295 kts | 91° |
| 2026-05-07 18:41 | -3.04589 | -59.79631 | 10844 ft | 320 kts | 92° |
| 2026-05-07 18:41 | -3.04660 | -59.77370 | 11270 ft | 340 kts | 92° |
| 2026-05-07 18:41 | -3.04737 | -59.74977 | 11969 ft | 346 kts | 91° |
| 2026-05-07 18:41 | -3.04814 | -59.72550 | 12705 ft | 350 kts | 92° |
| 2026-05-07 18:42 | -3.04894 | -59.70080 | 13435 ft | 355 kts | 92° |
| 2026-05-07 18:42 | -3.04981 | -59.67587 | 14094 ft | 360 kts | 92° |
| 2026-05-07 18:42 | -3.05070 | -59.65093 | 14763 ft | 362 kts | 92° |
| 2026-05-07 18:42 | -3.05160 | -59.62557 | 15398 ft | 366 kts | 92° |
| 2026-05-07 18:43 | -3.05252 | -59.59997 | 16059 ft | 368 kts | 92° |
| 2026-05-07 18:43 | -3.05345 | -59.57444 | 16697 ft | 371 kts | 92° |
| 2026-05-07 18:43 | -3.05438 | -59.54842 | 17319 ft | 374 kts | 92° |
| 2026-05-07 18:43 | -3.05531 | -59.52219 | 17936 ft | 377 kts | 92° |
| 2026-05-07 18:44 | -3.05624 | -59.49582 | 18485 ft | 380 kts | 92° |
| 2026-05-07 18:44 | -3.05716 | -59.46947 | 18993 ft | 383 kts | 92° |
| 2026-05-07 18:44 | -3.05809 | -59.44268 | 19499 ft | 386 kts | 92° |
| 2026-05-07 18:44 | -3.05902 | -59.41594 | 19993 ft | 389 kts | 92° |
| 2026-05-07 18:45 | -3.05996 | -59.38868 | 20497 ft | 392 kts | 92° |
| 2026-05-07 18:45 | -3.06092 | -59.36116 | 20992 ft | 395 kts | 92° |
| 2026-05-07 18:45 | -3.06187 | -59.33381 | 21490 ft | 397 kts | 92° |
| 2026-05-07 18:45 | -3.06283 | -59.30597 | 21981 ft | 401 kts | 92° |
| 2026-05-07 18:46 | -3.06380 | -59.27823 | 22458 ft | 404 kts | 92° |
| 2026-05-07 18:46 | -3.06445 | -59.25949 | 22778 ft | 405 kts | 92° |
| 2026-05-07 18:46 | -3.06543 | -59.23100 | 23247 ft | 408 kts | 92° |
| 2026-05-07 18:46 | -3.06642 | -59.20243 | 23669 ft | 411 kts | 92° |
| 2026-05-07 18:47 | -3.06742 | -59.17372 | 24053 ft | 414 kts | 92° |
| 2026-05-07 18:47 | -3.06841 | -59.14506 | 24428 ft | 417 kts | 92° |
| 2026-05-07 18:47 | -3.06943 | -59.11565 | 24802 ft | 420 kts | 92° |
| 2026-05-07 18:47 | -3.07044 | -59.08660 | 25162 ft | 423 kts | 92° |
| 2026-05-07 18:48 | -3.07146 | -59.05713 | 25523 ft | 426 kts | 92° |
| 2026-05-07 18:48 | -3.07249 | -59.02718 | 25881 ft | 429 kts | 92° |
| 2026-05-07 18:48 | -3.07351 | -58.99769 | 26213 ft | 432 kts | 92° |
| 2026-05-07 18:48 | -3.07455 | -58.96755 | 26554 ft | 434 kts | 92° |
| 2026-05-07 18:49 | -3.07560 | -58.93711 | 26887 ft | 437 kts | 92° |
| 2026-05-07 18:49 | -3.07665 | -58.90675 | 27217 ft | 440 kts | 92° |
| 2026-05-07 18:49 | -3.07771 | -58.87594 | 27536 ft | 442 kts | 92° |
| 2026-05-07 18:49 | -3.07877 | -58.84522 | 27846 ft | 445 kts | 92° |
| 2026-05-07 18:50 | -3.07984 | -58.81410 | 28155 ft | 448 kts | 92° |
| 2026-05-07 18:50 | -3.08092 | -58.78270 | 28469 ft | 450 kts | 92° |
| 2026-05-07 18:50 | -3.08199 | -58.75144 | 28772 ft | 453 kts | 92° |
| 2026-05-07 18:50 | -3.08308 | -58.71970 | 29071 ft | 455 kts | 92° |
| 2026-05-07 18:51 | -3.08416 | -58.68810 | 29351 ft | 458 kts | 92° |
| 2026-05-07 18:51 | -3.08527 | -58.65586 | 29638 ft | 460 kts | 92° |
| 2026-05-07 18:51 | -3.08635 | -58.62400 | 29919 ft | 463 kts | 92° |
| 2026-05-07 18:51 | -3.08746 | -58.59165 | 30182 ft | 465 kts | 92° |
| 2026-05-07 18:52 | -3.08856 | -58.55947 | 30457 ft | 467 kts | 92° |
| 2026-05-07 18:52 | -3.08967 | -58.52686 | 30714 ft | 469 kts | 92° |
| 2026-05-07 18:52 | -3.09078 | -58.49428 | 30991 ft | 471 kts | 92° |
| 2026-05-07 18:52 | -3.09190 | -58.46146 | 31339 ft | 471 kts | 92° |
| 2026-05-07 18:53 | -3.09302 | -58.42853 | 31706 ft | 470 kts | 92° |
| 2026-05-07 18:53 | -3.09400 | -58.39601 | 32068 ft | 470 kts | 91° |
| 2026-05-07 18:53 | -3.09247 | -58.36324 | 32408 ft | 470 kts | 84° |
| 2026-05-07 18:53 | -3.08754 | -58.33121 | 32741 ft | 470 kts | 78° |
| 2026-05-07 18:54 | -3.07973 | -58.29906 | 33064 ft | 470 kts | 77° |
| 2026-05-07 18:54 | -3.07190 | -58.26760 | 33386 ft | 470 kts | 77° |
| 2026-05-07 18:54 | -3.06404 | -58.23571 | 33703 ft | 470 kts | 77° |
| 2026-05-07 18:54 | -3.05624 | -58.20391 | 34002 ft | 469 kts | 77° |
| 2026-05-07 18:55 | -3.04851 | -58.17246 | 34276 ft | 469 kts | 77° |
| 2026-05-07 18:55 | -3.04067 | -58.14055 | 34551 ft | 468 kts | 77° |
| 2026-05-07 18:55 | -3.03286 | -58.10881 | 34814 ft | 467 kts | 77° |
| 2026-05-07 18:55 | -3.02514 | -58.07747 | 35081 ft | 467 kts | 77° |
| 2026-05-07 18:56 | -3.01740 | -58.04604 | 35357 ft | 466 kts | 77° |
| 2026-05-07 18:56 | -3.00963 | -58.01448 | 35640 ft | 465 kts | 77° |
| 2026-05-07 18:56 | -3.00185 | -57.98290 | 35911 ft | 464 kts | 77° |
| 2026-05-07 18:56 | -2.99416 | -57.95173 | 36178 ft | 463 kts | 77° |
| 2026-05-07 18:57 | -2.98649 | -57.92060 | 36440 ft | 462 kts | 77° |
| 2026-05-07 18:57 | -2.97875 | -57.88919 | 36716 ft | 462 kts | 77° |
| 2026-05-07 18:57 | -2.97112 | -57.85823 | 36872 ft | 461 kts | 77° |
| 2026-05-07 18:58 | -2.95573 | -57.79580 | 36884 ft | 459 kts | 77° |
| 2026-05-07 18:58 | -2.94053 | -57.73414 | 36884 ft | 459 kts | 77° |
| 2026-05-07 18:59 | -2.92522 | -57.67210 | 36883 ft | 458 kts | 77° |
| 2026-05-07 18:59 | -2.90987 | -57.60985 | 36885 ft | 458 kts | 77° |
| 2026-05-07 19:00 | -2.89462 | -57.54805 | 36881 ft | 458 kts | 77° |
| 2026-05-07 19:00 | -2.87934 | -57.48616 | 36882 ft | 458 kts | 77° |
| 2026-05-07 19:01 | -2.86407 | -57.42430 | 36880 ft | 457 kts | 77° |
| 2026-05-07 19:01 | -2.84884 | -57.36265 | 36881 ft | 457 kts | 77° |
| 2026-05-07 19:02 | -2.83366 | -57.30119 | 36877 ft | 457 kts | 77° |
| 2026-05-07 19:02 | -2.81841 | -57.23942 | 36875 ft | 457 kts | 77° |
| 2026-05-07 19:03 | -2.80310 | -57.17745 | 36878 ft | 457 kts | 77° |
| 2026-05-07 19:03 | -2.78791 | -57.11602 | 36877 ft | 457 kts | 76° |
| 2026-05-07 19:04 | -2.77256 | -57.05392 | 36873 ft | 457 kts | 76° |
| 2026-05-07 19:04 | -2.75739 | -56.99256 | 36874 ft | 457 kts | 76° |
| 2026-05-07 19:05 | -2.74210 | -56.93076 | 36874 ft | 457 kts | 76° |
| 2026-05-07 19:05 | -2.72679 | -56.86887 | 36873 ft | 457 kts | 76° |
| 2026-05-07 19:06 | -2.71148 | -56.80698 | 36869 ft | 458 kts | 76° |
| 2026-05-07 19:06 | -2.68849 | -56.71412 | 36868 ft | 459 kts | 76° |
| 2026-05-07 19:07 | -2.67316 | -56.65223 | 36871 ft | 460 kts | 76° |
| 2026-05-07 19:07 | -2.65777 | -56.59007 | 36868 ft | 461 kts | 76° |
| 2026-05-07 19:08 | -2.64229 | -56.52759 | 36872 ft | 462 kts | 76° |
| 2026-05-07 19:08 | -2.62687 | -56.46534 | 36877 ft | 462 kts | 76° |
| 2026-05-07 19:09 | -2.61426 | -56.40224 | 36885 ft | 463 kts | 84° |
| 2026-05-07 19:09 | -2.60710 | -56.33822 | 36880 ft | 463 kts | 83° |
| 2026-05-07 19:10 | -2.59971 | -56.27403 | 36878 ft | 463 kts | 83° |
| 2026-05-07 19:10 | -2.59238 | -56.21035 | 36881 ft | 463 kts | 83° |
| 2026-05-07 19:11 | -2.58498 | -56.14592 | 36881 ft | 463 kts | 83° |
| 2026-05-07 19:11 | -2.57762 | -56.08189 | 36880 ft | 464 kts | 83° |
| 2026-05-07 19:12 | -2.57026 | -56.01784 | 36882 ft | 464 kts | 83° |
| 2026-05-07 19:12 | -2.56290 | -55.95377 | 36880 ft | 464 kts | 83° |
| 2026-05-07 19:13 | -2.55553 | -55.88969 | 36881 ft | 464 kts | 83° |
| 2026-05-07 19:13 | -2.54816 | -55.82569 | 36883 ft | 464 kts | 83° |
| 2026-05-07 19:14 | -2.54081 | -55.76184 | 36883 ft | 464 kts | 84° |
| 2026-05-07 19:14 | -2.53338 | -55.69734 | 36880 ft | 464 kts | 84° |
| 2026-05-07 19:15 | -2.52603 | -55.63352 | 36885 ft | 464 kts | 84° |
| 2026-05-07 19:15 | -2.51863 | -55.56929 | 36878 ft | 463 kts | 84° |
| 2026-05-07 19:16 | -2.51125 | -55.50538 | 36878 ft | 462 kts | 84° |
| 2026-05-07 19:16 | -2.50389 | -55.44156 | 36878 ft | 462 kts | 84° |
| 2026-05-07 19:17 | -2.49651 | -55.37764 | 36879 ft | 462 kts | 83° |
| 2026-05-07 19:17 | -2.48786 | -55.31399 | 36876 ft | 461 kts | 82° |
| 2026-05-07 19:18 | -2.47891 | -55.25087 | 36884 ft | 461 kts | 82° |
| 2026-05-07 19:18 | -2.47150 | -55.19767 | 36882 ft | 461 kts | 82° |
| 2026-05-07 19:19 | -2.46273 | -55.13424 | 36881 ft | 461 kts | 82° |
| 2026-05-07 19:19 | -2.45392 | -55.07036 | 36881 ft | 461 kts | 82° |
| 2026-05-07 19:20 | -2.44520 | -55.00717 | 36869 ft | 461 kts | 82° |
| 2026-05-07 19:20 | -2.43640 | -54.94352 | 36868 ft | 461 kts | 82° |
| 2026-05-07 19:21 | -2.42761 | -54.87991 | 36859 ft | 460 kts | 82° |
| 2026-05-07 19:21 | -2.41886 | -54.81663 | 36857 ft | 460 kts | 82° |
| 2026-05-07 19:22 | -2.41009 | -54.75319 | 36855 ft | 460 kts | 82° |
| 2026-05-07 19:22 | -2.40159 | -54.69172 | 36850 ft | 460 kts | 82° |
| 2026-05-07 19:23 | -2.39279 | -54.62813 | 36852 ft | 460 kts | 82° |
| 2026-05-07 19:23 | -2.38403 | -54.56486 | 36855 ft | 460 kts | 82° |
| 2026-05-07 19:24 | -2.37583 | -54.50565 | 36862 ft | 461 kts | 82° |
| 2026-05-07 19:24 | -2.36629 | -54.44507 | 36867 ft | 461 kts | 80° |
| 2026-05-07 19:25 | -2.35631 | -54.38535 | 36870 ft | 461 kts | 81° |
| 2026-05-07 19:25 | -2.34593 | -54.32222 | 36871 ft | 462 kts | 81° |
| 2026-05-07 19:26 | -2.33557 | -54.25859 | 36874 ft | 462 kts | 81° |
| 2026-05-07 19:26 | -2.32526 | -54.19524 | 36874 ft | 463 kts | 81° |
| 2026-05-07 19:27 | -2.31492 | -54.13169 | 36878 ft | 463 kts | 81° |
| 2026-05-07 19:27 | -2.30455 | -54.06803 | 36877 ft | 463 kts | 81° |
| 2026-05-07 19:28 | -2.29418 | -54.00434 | 36875 ft | 463 kts | 81° |
| 2026-05-07 19:28 | -2.28388 | -53.94110 | 36876 ft | 462 kts | 81° |
| 2026-05-07 19:29 | -2.27359 | -53.87792 | 36879 ft | 462 kts | 81° |
| 2026-05-07 19:29 | -2.26323 | -53.81440 | 36877 ft | 462 kts | 81° |
| 2026-05-07 19:30 | -2.25292 | -53.75106 | 36882 ft | 462 kts | 81° |
| 2026-05-07 19:30 | -2.24259 | -53.68760 | 36879 ft | 462 kts | 81° |
| 2026-05-07 19:31 | -2.23222 | -53.62390 | 36881 ft | 460 kts | 81° |
| 2026-05-07 19:31 | -2.22194 | -53.56081 | 36881 ft | 460 kts | 81° |
| 2026-05-07 19:32 | -2.21165 | -53.49765 | 36881 ft | 459 kts | 81° |
| 2026-05-07 19:32 | -2.20137 | -53.43465 | 36880 ft | 459 kts | 81° |
| 2026-05-07 19:33 | -2.19110 | -53.37164 | 36878 ft | 459 kts | 81° |
| 2026-05-07 19:33 | -2.18082 | -53.30864 | 36872 ft | 458 kts | 81° |
| 2026-05-07 19:34 | -2.17057 | -53.24582 | 36867 ft | 458 kts | 81° |
| 2026-05-07 19:34 | -2.16029 | -53.18281 | 36865 ft | 458 kts | 80° |
| 2026-05-07 19:35 | -2.15006 | -53.12014 | 36867 ft | 458 kts | 81° |
| 2026-05-07 19:35 | -2.13973 | -53.05667 | 36882 ft | 462 kts | 81° |
| 2026-05-07 19:36 | -2.12942 | -52.99334 | 36881 ft | 463 kts | 81° |
| 2026-05-07 19:36 | -2.11907 | -52.92976 | 36885 ft | 464 kts | 81° |
| 2026-05-07 19:37 | -2.10863 | -52.86568 | 36884 ft | 464 kts | 81° |
| 2026-05-07 19:37 | -2.09832 | -52.80238 | 36883 ft | 463 kts | 81° |
| 2026-05-07 19:38 | -2.08798 | -52.73890 | 36883 ft | 463 kts | 81° |
| 2026-05-07 19:38 | -2.07766 | -52.67524 | 36883 ft | 463 kts | 81° |
| 2026-05-07 19:39 | -2.06739 | -52.61177 | 36886 ft | 463 kts | 81° |
| 2026-05-07 19:39 | -2.05705 | -52.54796 | 36884 ft | 462 kts | 81° |
| 2026-05-07 19:40 | -2.04686 | -52.48508 | 36881 ft | 460 kts | 80° |
| 2026-05-07 19:40 | -2.03657 | -52.42191 | 36876 ft | 459 kts | 80° |
| 2026-05-07 19:41 | -2.02621 | -52.35862 | 36873 ft | 458 kts | 80° |
| 2026-05-07 19:41 | -2.01589 | -52.29573 | 36868 ft | 457 kts | 80° |
| 2026-05-07 19:42 | -2.00562 | -52.23314 | 36867 ft | 457 kts | 80° |
| 2026-05-07 19:42 | -1.99536 | -52.17068 | 36865 ft | 457 kts | 80° |
| 2026-05-07 19:43 | -1.98504 | -52.10792 | 36867 ft | 456 kts | 80° |
| 2026-05-07 19:43 | -1.97472 | -52.04523 | 36863 ft | 457 kts | 80° |
| 2026-05-07 19:44 | -1.96430 | -51.98227 | 36884 ft | 461 kts | 80° |
| 2026-05-07 19:44 | -1.95381 | -51.91911 | 36882 ft | 461 kts | 80° |
| 2026-05-07 19:45 | -1.94333 | -51.85592 | 36885 ft | 462 kts | 80° |
| 2026-05-07 19:45 | -1.93280 | -51.79241 | 36883 ft | 461 kts | 80° |
| 2026-05-07 19:46 | -1.92232 | -51.72945 | 36884 ft | 462 kts | 80° |
| 2026-05-07 19:46 | -1.91170 | -51.66577 | 36883 ft | 462 kts | 80° |
| 2026-05-07 19:47 | -1.90117 | -51.60250 | 36885 ft | 462 kts | 80° |
| 2026-05-07 19:47 | -1.89061 | -51.53902 | 36885 ft | 462 kts | 80° |
| 2026-05-07 19:48 | -1.88018 | -51.47665 | 36884 ft | 463 kts | 80° |
| 2026-05-07 19:48 | -1.87141 | -51.42450 | 36882 ft | 463 kts | 80° |
| 2026-05-07 19:49 | -1.86055 | -51.36016 | 36884 ft | 464 kts | 80° |
| 2026-05-07 19:49 | -1.84972 | -51.29616 | 36886 ft | 464 kts | 80° |
| 2026-05-07 19:50 | -1.83899 | -51.23282 | 36887 ft | 464 kts | 80° |
| 2026-05-07 19:50 | -1.82816 | -51.16902 | 36889 ft | 465 kts | 80° |
| 2026-05-07 19:51 | -1.81738 | -51.10552 | 36890 ft | 465 kts | 80° |
| 2026-05-07 19:51 | -1.80654 | -51.04178 | 36892 ft | 465 kts | 80° |
| 2026-05-07 19:52 | -1.79586 | -50.97798 | 36891 ft | 465 kts | 81° |
| 2026-05-07 19:52 | -1.78679 | -50.91386 | 36458 ft | 465 kts | 82° |
| 2026-05-07 19:53 | -1.78236 | -50.88184 | 36040 ft | 460 kts | 82° |
| 2026-05-07 19:53 | -1.77798 | -50.85060 | 35640 ft | 454 kts | 82° |
| 2026-05-07 19:53 | -1.77357 | -50.81944 | 35234 ft | 448 kts | 82° |
| 2026-05-07 19:53 | -1.76923 | -50.78905 | 34845 ft | 442 kts | 82° |
| 2026-05-07 19:54 | -1.76633 | -50.76884 | 34587 ft | 439 kts | 82° |
| 2026-05-07 19:54 | -1.76197 | -50.73840 | 34205 ft | 437 kts | 82° |
| 2026-05-07 19:54 | -1.75770 | -50.70866 | 33837 ft | 436 kts | 82° |
| 2026-05-07 19:54 | -1.75338 | -50.67854 | 33388 ft | 434 kts | 82° |
| 2026-05-07 19:55 | -1.74777 | -50.63941 | 32822 ft | 428 kts | 82° |
| 2026-05-07 19:55 | -1.74490 | -50.61948 | 32539 ft | 425 kts | 82° |
| 2026-05-07 19:55 | -1.74074 | -50.59043 | 32130 ft | 421 kts | 83° |
| 2026-05-07 19:55 | -1.73660 | -50.56167 | 31723 ft | 419 kts | 83° |
| 2026-05-07 19:56 | -1.73244 | -50.53268 | 31311 ft | 417 kts | 83° |
| 2026-05-07 19:56 | -1.72835 | -50.50419 | 30919 ft | 414 kts | 83° |
| 2026-05-07 19:56 | -1.72432 | -50.47604 | 30532 ft | 411 kts | 83° |
| 2026-05-07 19:56 | -1.72025 | -50.44773 | 30149 ft | 408 kts | 83° |
| 2026-05-07 19:57 | -1.71625 | -50.41984 | 29732 ft | 406 kts | 83° |
| 2026-05-07 19:57 | -1.71222 | -50.39168 | 29271 ft | 409 kts | 83° |
| 2026-05-07 19:57 | -1.70817 | -50.36340 | 28970 ft | 417 kts | 83° |
| 2026-05-07 19:57 | -1.70404 | -50.33457 | 28897 ft | 415 kts | 83° |
| 2026-05-07 19:58 | -1.69586 | -50.27768 | 28893 ft | 415 kts | 83° |
| 2026-05-07 19:58 | -1.68764 | -50.22039 | 28893 ft | 415 kts | 83° |
| 2026-05-07 19:59 | -1.67946 | -50.16344 | 28892 ft | 415 kts | 83° |
| 2026-05-07 19:59 | -1.67124 | -50.10620 | 28895 ft | 415 kts | 83° |
| 2026-05-07 20:00 | -1.66303 | -50.04903 | 28896 ft | 415 kts | 83° |
| 2026-05-07 20:00 | -1.65483 | -49.99194 | 28892 ft | 415 kts | 83° |
| 2026-05-07 20:01 | -1.64667 | -49.93519 | 28893 ft | 415 kts | 83° |
| 2026-05-07 20:01 | -1.63846 | -49.87811 | 28897 ft | 415 kts | 83° |
| 2026-05-07 20:02 | -1.63023 | -49.82085 | 28893 ft | 415 kts | 83° |
| 2026-05-07 20:02 | -1.62206 | -49.76398 | 28893 ft | 415 kts | 83° |
| 2026-05-07 20:03 | -1.61379 | -49.70651 | 28514 ft | 416 kts | 83° |
| 2026-05-07 20:03 | -1.60971 | -49.67814 | 28100 ft | 412 kts | 83° |
| 2026-05-07 20:03 | -1.60563 | -49.64985 | 27682 ft | 407 kts | 83° |
| 2026-05-07 20:04 | -1.60164 | -49.62215 | 27266 ft | 402 kts | 83° |
| 2026-05-07 20:04 | -1.59768 | -49.59463 | 26854 ft | 396 kts | 83° |
| 2026-05-07 20:04 | -1.59376 | -49.56741 | 26446 ft | 391 kts | 83° |
| 2026-05-07 20:04 | -1.58994 | -49.54083 | 26050 ft | 387 kts | 83° |
| 2026-05-07 20:05 | -1.58610 | -49.51415 | 25651 ft | 382 kts | 83° |
| 2026-05-07 20:05 | -1.58238 | -49.48830 | 25266 ft | 378 kts | 83° |
| 2026-05-07 20:05 | -1.57864 | -49.46228 | 24882 ft | 374 kts | 83° |
| 2026-05-07 20:05 | -1.57492 | -49.43642 | 24505 ft | 373 kts | 83° |
| 2026-05-07 20:06 | -1.57127 | -49.41103 | 24136 ft | 372 kts | 83° |
| 2026-05-07 20:06 | -1.56769 | -49.38617 | 23782 ft | 369 kts | 83° |
| 2026-05-07 20:06 | -1.56406 | -49.36094 | 23400 ft | 366 kts | 83° |
| 2026-05-07 20:06 | -1.56042 | -49.33565 | 22958 ft | 365 kts | 83° |
| 2026-05-07 20:07 | -1.55685 | -49.31083 | 22531 ft | 362 kts | 83° |
| 2026-05-07 20:07 | -1.55326 | -49.28590 | 22089 ft | 360 kts | 83° |
| 2026-05-07 20:07 | -1.54968 | -49.26103 | 21639 ft | 357 kts | 83° |
| 2026-05-07 20:07 | -1.54620 | -49.23683 | 21188 ft | 355 kts | 83° |
| 2026-05-07 20:08 | -1.54267 | -49.21224 | 20707 ft | 354 kts | 83° |
| 2026-05-07 20:08 | -1.53920 | -49.18809 | 20238 ft | 353 kts | 83° |
| 2026-05-07 20:08 | -1.53569 | -49.16372 | 19772 ft | 352 kts | 83° |
| 2026-05-07 20:08 | -1.53217 | -49.13933 | 19315 ft | 351 kts | 83° |
| 2026-05-07 20:09 | -1.52873 | -49.11543 | 18870 ft | 350 kts | 83° |
| 2026-05-07 20:09 | -1.52525 | -49.09126 | 18432 ft | 349 kts | 83° |
| 2026-05-07 20:09 | -1.52182 | -49.06749 | 17960 ft | 347 kts | 83° |
| 2026-05-07 20:10 | -1.51497 | -49.01992 | 16955 ft | 344 kts | 82° |
| 2026-05-07 20:10 | -1.51159 | -48.99640 | 16470 ft | 343 kts | 82° |
| 2026-05-07 20:10 | -1.50817 | -48.97269 | 15982 ft | 341 kts | 82° |
| 2026-05-07 20:10 | -1.50482 | -48.94942 | 15509 ft | 340 kts | 82° |
| 2026-05-07 20:11 | -1.50145 | -48.92606 | 15041 ft | 338 kts | 82° |
| 2026-05-07 20:11 | -1.49811 | -48.90292 | 14573 ft | 336 kts | 82° |
| 2026-05-07 20:11 | -1.49475 | -48.87963 | 14122 ft | 335 kts | 82° |
| 2026-05-07 20:11 | -1.49147 | -48.85685 | 13675 ft | 333 kts | 82° |
| 2026-05-07 20:12 | -1.48817 | -48.83398 | 13169 ft | 332 kts | 82° |
| 2026-05-07 20:12 | -1.48487 | -48.81112 | 12662 ft | 330 kts | 82° |
| 2026-05-07 20:12 | -1.48162 | -48.78863 | 12169 ft | 328 kts | 82° |
| 2026-05-07 20:12 | -1.47836 | -48.76602 | 11679 ft | 326 kts | 82° |
| 2026-05-07 20:13 | -1.47515 | -48.74378 | 11204 ft | 325 kts | 82° |
| 2026-05-07 20:13 | -1.47195 | -48.72162 | 10732 ft | 323 kts | 82° |
| 2026-05-07 20:13 | -1.46874 | -48.69934 | 10255 ft | 321 kts | 82° |
| 2026-05-07 20:13 | -1.46560 | -48.67761 | 9981 ft | 313 kts | 82° |
| 2026-05-07 20:14 | -1.46254 | -48.65644 | 9889 ft | 299 kts | 82° |
| 2026-05-07 20:14 | -1.45967 | -48.63658 | 9868 ft | 282 kts | 82° |
| 2026-05-07 20:14 | -1.45692 | -48.61749 | 9694 ft | 273 kts | 82° |
| 2026-05-07 20:14 | -1.45422 | -48.59883 | 9260 ft | 272 kts | 82° |
| 2026-05-07 20:15 | -1.45152 | -48.58012 | 8845 ft | 273 kts | 82° |
| 2026-05-07 20:15 | -1.44879 | -48.56125 | 8422 ft | 273 kts | 82° |
| 2026-05-07 20:15 | -1.44610 | -48.54263 | 8008 ft | 273 kts | 82° |
| 2026-05-07 20:15 | -1.44627 | -48.52368 | 7594 ft | 271 kts | 104° |
| 2026-05-07 20:16 | -1.45469 | -48.50721 | 7192 ft | 271 kts | 131° |
| 2026-05-07 20:16 | -1.47000 | -48.49628 | 6801 ft | 273 kts | 158° |
| 2026-05-07 20:16 | -1.48855 | -48.49361 | 6417 ft | 275 kts | 185° |
| 2026-05-07 20:16 | -1.50666 | -48.49978 | 6016 ft | 279 kts | 212° |
| 2026-05-07 20:17 | -1.52018 | -48.51366 | 5598 ft | 281 kts | 238° |
| 2026-05-07 20:17 | -1.52809 | -48.53143 | 5184 ft | 282 kts | 249° |
| 2026-05-07 20:17 | -1.53478 | -48.54995 | 4783 ft | 281 kts | 248° |
| 2026-05-07 20:17 | -1.54215 | -48.56811 | 4369 ft | 280 kts | 246° |
| 2026-05-07 20:18 | -1.54669 | -48.58676 | 4018 ft | 278 kts | 270° |
| 2026-05-07 20:18 | -1.54227 | -48.60515 | 3855 ft | 268 kts | 299° |
| 2026-05-07 20:18 | -1.53040 | -48.61852 | 3708 ft | 255 kts | 328° |
| 2026-05-07 20:18 | -1.51416 | -48.62420 | 3548 ft | 243 kts | 358° |
| 2026-05-07 20:19 | -1.49776 | -48.62175 | 3283 ft | 236 kts | 25° |
| 2026-05-07 20:19 | -1.48447 | -48.61272 | 2987 ft | 231 kts | 49° |
| 2026-05-07 20:19 | -1.47582 | -48.59915 | 2647 ft | 232 kts | 64° |
| 2026-05-07 20:19 | -1.46855 | -48.58519 | 2509 ft | 220 kts | 63° |
| 2026-05-07 20:20 | -1.46176 | -48.57244 | 2474 ft | 192 kts | 63° |
| 2026-05-07 20:20 | -1.45588 | -48.56161 | 2512 ft | 167 kts | 62° |
| 2026-05-07 20:20 | -1.45046 | -48.55165 | 2487 ft | 156 kts | 62° |
| 2026-05-07 20:20 | -1.44538 | -48.54232 | 2477 ft | 151 kts | 62° |
| 2026-05-07 20:21 | -1.43959 | -48.53340 | 2345 ft | 151 kts | 52° |
| 2026-05-07 20:21 | -1.43235 | -48.52571 | 1990 ft | 152 kts | 44° |
| 2026-05-07 20:21 | -1.42408 | -48.51882 | 1507 ft | 162 kts | 37° |
| 2026-05-07 20:21 | -1.41513 | -48.51196 | 1121 ft | 163 kts | 40° |
| 2026-05-07 20:22 | -1.40705 | -48.50425 | 745 ft | 161 kts | 45° |
| 2026-05-07 20:22 | -1.39946 | -48.49645 | 459 ft | 148 kts | 44° |
| 2026-05-07 20:22 | -1.39249 | -48.48958 | 205 ft | 136 kts | 44° |
| 2026-05-07 20:22 | -1.38593 | -48.48298 | 48 ft | 136 kts | 44° |
| 2026-05-07 20:23 | -1.37994 | -48.47692 | 41 ft | 76 kts | 46° |
| 2026-05-07 20:23 | -1.37894 | -48.47589 | 39 ft | 3 kts | 46° |
| 2026-05-07 20:23 | -1.37880 | -48.47571 | 39 ft | 1 kts | 6° |
| 2026-05-07 20:23 | -1.37878 | -48.47576 | 39 ft | 0 kts | 315° |
| 2026-05-07 20:24 | -1.37872 | -48.47588 | 39 ft | 4 kts | 294° |
| 2026-05-07 20:24 | -1.37883 | -48.47603 | 39 ft | 3 kts | 207° |
| 2026-05-07 20:24 | -1.37917 | -48.47605 | 39 ft | 7 kts | 186° |
| 2026-05-07 20:24 | -1.37980 | -48.47615 | 39 ft | 11 kts | 189° |
| 2026-05-07 20:25 | -1.38066 | -48.47629 | 41 ft | 14 kts | 187° |
| 2026-05-07 20:25 | -1.38170 | -48.47640 | 42 ft | 16 kts | 184° |
| 2026-05-07 20:25 | -1.38295 | -48.47650 | 42 ft | 20 kts | 185° |
| 2026-05-07 20:25 | -1.38443 | -48.47663 | 42 ft | 23 kts | 185° |
| 2026-05-07 20:26 | -1.38606 | -48.47678 | 44 ft | 23 kts | 186° |
| 2026-05-07 20:26 | -1.38661 | -48.47753 | 43 ft | 13 kts | 250° |
| 2026-05-07 20:26 | -1.38743 | -48.47797 | 43 ft | 15 kts | 188° |
| 2026-05-07 20:26 | -1.38862 | -48.47808 | 43 ft | 19 kts | 184° |
| 2026-05-07 20:27 | -1.38926 | -48.47812 | 43 ft | 1 kts | 184° |
| 2026-05-07 20:27 | -1.38952 | -48.47821 | 43 ft | 6 kts | 219° |
| 2026-05-07 20:27 | -1.38960 | -48.47874 | 43 ft | 10 kts | 273° |
| 2026-05-07 20:27 | -1.38959 | -48.47886 | 43 ft | 0 kts | 274° |